createdAt,value
2022-11-23T00:00:10.950Z,1002.74
2022-11-23T00:01:10.943Z,1002.69
2022-11-23T00:02:11.007Z,1002.76
2022-11-23T00:03:11.015Z,1002.76
2022-11-23T00:04:10.940Z,1002.73
2022-11-23T00:05:10.894Z,1002.73
2022-11-23T00:06:10.867Z,1002.80
2022-11-23T00:07:10.925Z,1002.79
2022-11-23T00:08:10.863Z,1002.87
2022-11-23T00:09:10.787Z,1002.74
2022-11-23T00:10:10.931Z,1002.77
2022-11-23T00:11:10.785Z,1002.76
2022-11-23T00:12:10.794Z,1002.77
2022-11-23T00:13:10.763Z,1002.80
2022-11-23T00:14:10.793Z,1002.81
2022-11-23T00:15:10.736Z,1002.80
2022-11-23T00:16:10.751Z,1002.79
2022-11-23T00:17:10.689Z,1002.84
2022-11-23T00:18:10.888Z,1002.84
2022-11-23T00:19:10.716Z,1002.76
2022-11-23T00:20:10.712Z,1002.78
2022-11-23T00:21:10.689Z,1002.81
2022-11-23T00:22:10.628Z,1002.84
2022-11-23T00:23:10.644Z,1002.86
2022-11-23T00:24:10.647Z,1002.87
2022-11-23T00:25:10.654Z,1002.86
2022-11-23T00:26:10.701Z,1002.86
2022-11-23T00:27:10.571Z,1002.79
2022-11-23T00:28:10.590Z,1002.93
2022-11-23T00:29:10.585Z,1002.80
2022-11-23T00:30:10.701Z,1002.84
2022-11-23T00:31:10.526Z,1002.89
2022-11-23T00:32:10.721Z,1002.89
2022-11-23T00:33:10.498Z,1002.88
2022-11-23T00:34:10.515Z,1002.88
2022-11-23T00:35:10.502Z,1002.86
2022-11-23T00:36:10.466Z,1002.82
2022-11-23T00:37:10.435Z,1002.87
2022-11-23T00:38:10.623Z,1002.78
2022-11-23T00:39:10.436Z,1002.90
2022-11-23T00:40:10.492Z,1002.93
2022-11-23T00:41:10.496Z,1002.85
2022-11-23T00:42:10.417Z,1002.84
2022-11-23T00:43:10.372Z,1002.83
2022-11-23T00:44:10.394Z,1002.89
2022-11-23T00:45:10.329Z,1002.89
2022-11-23T00:46:10.387Z,1002.87
2022-11-23T00:47:10.323Z,1002.94
2022-11-23T00:48:10.325Z,1002.87
2022-11-23T00:49:10.286Z,1002.93
2022-11-23T00:50:10.296Z,1002.91
2022-11-23T00:51:10.296Z,1002.90
2022-11-23T00:52:10.266Z,1002.88
2022-11-23T00:53:10.232Z,1002.97
2022-11-23T00:54:10.245Z,1002.92
2022-11-23T00:55:10.261Z,1002.95
2022-11-23T00:56:10.211Z,1002.94
2022-11-23T00:57:10.215Z,1002.98
2022-11-23T00:58:10.207Z,1002.93
2022-11-23T00:59:10.161Z,1002.96
2022-11-23T01:00:10.167Z,1002.96
2022-11-23T01:01:10.231Z,1002.89
2022-11-23T01:02:10.188Z,1002.87
2022-11-23T01:03:10.105Z,1002.91
2022-11-23T01:04:10.152Z,1002.94
2022-11-23T01:05:10.071Z,1002.88
2022-11-23T01:06:10.102Z,1002.90
2022-11-23T01:07:10.103Z,1003.00
2022-11-23T01:08:10.083Z,1002.90
2022-11-23T01:09:10.027Z,1002.89
2022-11-23T01:10:10.078Z,1002.94
2022-11-23T01:11:09.996Z,1002.92
2022-11-23T01:12:10.084Z,1002.87
2022-11-23T01:13:10.022Z,1002.96
2022-11-23T01:14:09.987Z,1002.95
2022-11-23T01:15:09.984Z,1002.97
2022-11-23T01:16:09.984Z,1002.97
2022-11-23T01:17:09.918Z,1002.96
2022-11-23T01:18:09.932Z,1002.99
2022-11-23T01:19:09.939Z,1002.97
2022-11-23T01:20:09.915Z,1003.02
2022-11-23T01:21:09.873Z,1003.06
2022-11-23T01:22:09.989Z,1002.98
2022-11-23T01:23:09.863Z,1003.04
2022-11-23T01:24:09.904Z,1003.03
2022-11-23T01:25:09.827Z,1003.12
2022-11-23T01:26:09.881Z,1003.09
2022-11-23T01:27:09.932Z,1003.12
2022-11-23T01:28:09.800Z,1003.14
2022-11-23T01:29:09.783Z,1003.12
2022-11-23T01:30:09.813Z,1003.08
2022-11-23T01:31:09.792Z,1003.09
2022-11-23T01:32:09.759Z,1003.14
2022-11-23T01:33:09.772Z,1003.08
2022-11-23T01:34:16.232Z,1003.08
2022-11-23T01:35:09.762Z,1003.11
2022-11-23T01:36:09.696Z,1003.14
2022-11-23T01:37:09.667Z,1003.14
2022-11-23T01:38:13.769Z,1003.14
2022-11-23T01:39:09.656Z,1003.13
2022-11-23T01:40:09.672Z,1003.13
2022-11-23T01:41:09.657Z,1003.15
2022-11-23T01:42:12.758Z,1003.08
2022-11-23T01:43:09.787Z,1003.10
2022-11-23T01:44:09.619Z,1003.14
2022-11-23T01:45:09.587Z,1003.10
2022-11-23T01:46:09.627Z,1003.09
2022-11-23T01:47:09.555Z,1003.08
2022-11-23T01:48:09.561Z,1003.13
2022-11-23T01:49:09.515Z,1003.09
2022-11-23T01:50:09.535Z,1003.13
2022-11-23T01:51:09.491Z,1003.18
2022-11-23T01:52:09.531Z,1003.18
2022-11-23T01:53:09.492Z,1003.12
2022-11-23T01:54:09.470Z,1003.15
2022-11-23T01:55:09.431Z,1003.15
2022-11-23T01:56:09.458Z,1003.17
2022-11-23T01:57:09.452Z,1003.13
2022-11-23T01:58:09.419Z,1003.10
2022-11-23T01:59:09.386Z,1003.13
2022-11-23T02:00:09.423Z,1003.20
2022-11-23T02:01:09.468Z,1003.13
2022-11-23T02:02:09.369Z,1003.06
2022-11-23T02:03:09.400Z,1003.10
2022-11-23T02:04:09.357Z,1003.10
2022-11-23T02:05:09.312Z,1003.09
2022-11-23T02:06:09.353Z,1003.05
2022-11-23T02:07:09.322Z,1003.10
2022-11-23T02:08:09.326Z,1003.11
2022-11-23T02:09:09.278Z,1003.07
2022-11-23T02:10:09.264Z,1003.08
2022-11-23T02:11:09.239Z,1003.10
2022-11-23T02:12:09.251Z,1003.08
2022-11-23T02:13:09.203Z,1003.06
2022-11-23T02:14:09.242Z,1003.07
2022-11-23T02:15:09.201Z,1003.10
2022-11-23T02:16:09.190Z,1003.07
2022-11-23T02:17:09.155Z,1003.09
2022-11-23T02:18:09.198Z,1003.06
2022-11-23T02:19:09.177Z,1003.09
2022-11-23T02:20:09.152Z,1003.11
2022-11-23T02:21:09.106Z,1003.07
2022-11-23T02:22:09.115Z,1003.08
2022-11-23T02:23:09.643Z,1003.06
2022-11-23T02:24:09.138Z,1003.06
2022-11-23T02:25:09.079Z,1003.05
2022-11-23T02:26:09.090Z,1003.08
2022-11-23T02:27:09.030Z,1003.04
2022-11-23T02:28:09.211Z,1003.04
2022-11-23T02:29:09.015Z,1003.04
2022-11-23T02:30:09.084Z,1003.03
2022-11-23T02:31:08.982Z,1003.03
2022-11-23T02:32:09.124Z,1003.01
2022-11-23T02:33:08.986Z,1003.01
2022-11-23T02:34:08.972Z,1003.04
2022-11-23T02:35:08.945Z,1003.04
2022-11-23T02:36:08.989Z,1003.04
2022-11-23T02:37:08.915Z,1003.01
2022-11-23T02:38:08.915Z,1003.03
2022-11-23T02:39:08.870Z,1003.01
2022-11-23T02:40:08.894Z,1003.02
2022-11-23T02:41:09.028Z,1002.98
2022-11-23T02:42:08.982Z,1003.00
2022-11-23T02:43:08.847Z,1003.02
2022-11-23T02:44:08.875Z,1002.99
2022-11-23T02:45:08.790Z,1003.02
2022-11-23T02:46:08.830Z,1003.04
2022-11-23T02:47:08.903Z,1003.03
2022-11-23T02:48:08.774Z,1003.05
2022-11-23T02:49:08.758Z,1003.01
2022-11-23T02:50:08.763Z,1003.04
2022-11-23T02:51:08.740Z,1003.06
2022-11-23T02:52:08.904Z,1003.07
2022-11-23T02:53:08.758Z,1003.03
2022-11-23T02:54:08.726Z,1003.01
2022-11-23T02:55:08.671Z,1003.04
2022-11-23T02:56:08.685Z,1003.01
2022-11-23T02:57:08.633Z,1003.06
2022-11-23T02:58:08.702Z,1002.98
2022-11-23T02:59:08.634Z,1003.09
2022-11-23T03:00:08.637Z,1003.03
2022-11-23T03:01:08.654Z,1003.06
2022-11-23T03:02:08.598Z,1003.02
2022-11-23T03:03:08.600Z,1003.02
2022-11-23T03:04:08.648Z,1002.99
2022-11-23T03:05:08.537Z,1003.01
2022-11-23T03:06:08.563Z,1003.05
2022-11-23T03:07:08.618Z,1003.06
2022-11-23T03:08:08.522Z,1003.08
2022-11-23T03:09:08.520Z,1003.05
2022-11-23T03:10:08.502Z,1003.06
2022-11-23T03:11:08.466Z,1003.06
2022-11-23T03:12:08.482Z,1003.01
2022-11-23T03:13:08.447Z,1003.06
2022-11-23T03:14:08.486Z,1003.10
2022-11-23T03:15:08.414Z,1003.09
2022-11-23T03:16:08.449Z,1003.10
2022-11-23T03:17:08.406Z,1003.07
2022-11-23T03:18:08.389Z,1003.05
2022-11-23T03:19:08.374Z,1003.09
2022-11-23T03:20:08.402Z,1003.03
2022-11-23T03:21:08.339Z,1003.10
2022-11-23T03:22:08.367Z,1003.13
2022-11-23T03:23:08.310Z,1003.12
2022-11-23T03:24:08.331Z,1003.09
2022-11-23T03:25:08.337Z,1003.09
2022-11-23T03:26:12.642Z,1003.06
2022-11-23T03:27:08.262Z,1003.16
2022-11-23T03:28:08.266Z,1003.13
2022-11-23T03:29:08.256Z,1003.15
2022-11-23T03:30:08.256Z,1003.12
2022-11-23T03:31:08.243Z,1003.08
2022-11-23T03:32:08.218Z,1003.09
2022-11-23T03:33:08.188Z,1003.06
2022-11-23T03:34:08.187Z,1003.04
2022-11-23T03:35:08.158Z,1003.01
2022-11-23T03:36:08.193Z,1003.02
2022-11-23T03:37:08.148Z,1003.04
2022-11-23T03:38:08.168Z,1003.00
2022-11-23T03:39:08.103Z,1003.07
2022-11-23T03:40:08.113Z,1003.06
2022-11-23T03:41:08.089Z,1003.03
2022-11-23T03:42:08.133Z,1003.05
2022-11-23T03:43:08.051Z,1003.07
2022-11-23T03:44:08.089Z,1003.07
2022-11-23T03:45:08.027Z,1003.07
2022-11-23T03:46:08.035Z,1003.06
2022-11-23T03:47:08.060Z,1003.08
2022-11-23T03:48:08.016Z,1003.06
2022-11-23T03:49:07.976Z,1003.02
2022-11-23T03:50:07.985Z,1003.01
2022-11-23T03:51:07.958Z,1003.02
2022-11-23T03:52:08.028Z,1003.01
2022-11-23T03:53:07.964Z,1003.02
2022-11-23T03:54:07.944Z,1002.99
2022-11-23T03:55:07.922Z,1002.93
2022-11-23T03:56:07.911Z,1002.99
2022-11-23T03:57:07.871Z,1002.99
2022-11-23T03:58:07.900Z,1002.95
2022-11-23T03:59:07.848Z,1002.98
2022-11-23T04:00:07.850Z,1002.93
2022-11-23T04:01:07.927Z,1002.93
2022-11-23T04:02:07.838Z,1002.86
2022-11-23T04:03:07.794Z,1002.92
2022-11-23T04:04:07.862Z,1002.88
2022-11-23T04:05:07.764Z,1002.90
2022-11-23T04:06:07.794Z,1002.93
2022-11-23T04:07:07.756Z,1002.88
2022-11-23T04:08:07.912Z,1002.93
2022-11-23T04:09:07.769Z,1002.89
2022-11-23T04:10:07.741Z,1002.93
2022-11-23T04:11:07.690Z,1002.87
2022-11-23T04:12:07.720Z,1002.84
2022-11-23T04:13:07.671Z,1002.80
2022-11-23T04:14:07.705Z,1002.88
2022-11-23T04:15:07.676Z,1002.87
2022-11-23T04:16:07.667Z,1002.80
2022-11-23T04:17:07.623Z,1002.82
2022-11-23T04:18:07.638Z,1002.79
2022-11-23T04:19:07.608Z,1002.85
2022-11-23T04:20:07.647Z,1002.84
2022-11-23T04:21:07.564Z,1002.82
2022-11-23T04:22:07.570Z,1002.77
2022-11-23T04:23:12.913Z,1002.69
2022-11-23T04:24:07.552Z,1002.73
2022-11-23T04:25:07.512Z,1002.72
2022-11-23T04:26:07.590Z,1002.69
2022-11-23T04:27:07.491Z,1002.76
2022-11-23T04:28:07.503Z,1002.69
2022-11-23T04:29:07.507Z,1002.82
2022-11-23T04:30:07.465Z,1002.69
2022-11-23T04:31:07.468Z,1002.75
2022-11-23T04:32:07.497Z,1002.75
2022-11-23T04:33:07.407Z,1002.77
2022-11-23T04:34:07.424Z,1002.65
2022-11-23T04:35:07.393Z,1002.77
2022-11-23T04:36:07.417Z,1002.78
2022-11-23T04:37:12.924Z,1002.78
2022-11-23T04:38:07.351Z,1002.78
2022-11-23T04:39:07.389Z,1002.77
2022-11-23T04:40:07.327Z,1002.83
2022-11-23T04:41:07.339Z,1002.81
2022-11-23T04:42:07.376Z,1002.86
2022-11-23T04:43:07.325Z,1002.89
2022-11-23T04:44:07.276Z,1002.91
2022-11-23T04:45:07.301Z,1002.96
2022-11-23T04:46:07.238Z,1002.92
2022-11-23T04:47:07.251Z,1002.99
2022-11-23T04:48:07.313Z,1002.98
2022-11-23T04:49:07.239Z,1003.00
2022-11-23T04:50:07.190Z,1003.04
2022-11-23T04:51:07.236Z,1003.01
2022-11-23T04:52:07.175Z,1003.01
2022-11-23T04:53:07.226Z,1003.02
2022-11-23T04:54:07.184Z,1003.00
2022-11-23T04:55:07.163Z,1003.05
2022-11-23T04:56:07.132Z,1003.06
2022-11-23T04:57:07.148Z,1003.08
2022-11-23T04:58:07.088Z,1003.10
2022-11-23T04:59:07.141Z,1003.07
2022-11-23T05:00:07.113Z,1003.08
2022-11-23T05:01:07.147Z,1003.10
2022-11-23T05:02:07.043Z,1003.10
2022-11-23T05:03:07.069Z,1003.14
2022-11-23T05:04:07.050Z,1003.09
2022-11-23T05:05:07.034Z,1003.17
2022-11-23T05:06:07.034Z,1003.16
2022-11-23T05:07:07.026Z,1003.14
2022-11-23T05:08:06.955Z,1003.14
2022-11-23T05:09:06.992Z,1003.18
2022-11-23T05:10:06.961Z,1003.16
2022-11-23T05:11:06.945Z,1003.20
2022-11-23T05:12:06.935Z,1003.20
2022-11-23T05:13:06.925Z,1003.18
2022-11-23T05:14:06.887Z,1003.25
2022-11-23T05:15:06.940Z,1003.17
2022-11-23T05:16:06.858Z,1003.16
2022-11-23T05:17:06.875Z,1003.22
2022-11-23T05:18:06.865Z,1003.20
2022-11-23T05:19:06.840Z,1003.21
2022-11-23T05:20:06.816Z,1003.18
2022-11-23T05:21:06.878Z,1003.20
2022-11-23T05:22:06.783Z,1003.22
2022-11-23T05:23:06.811Z,1003.23
2022-11-23T05:24:06.797Z,1003.21
2022-11-23T05:25:06.766Z,1003.21
2022-11-23T05:26:06.771Z,1003.27
2022-11-23T05:27:06.783Z,1003.23
2022-11-23T05:28:30.115Z,1003.35
2022-11-23T05:29:06.764Z,1003.23
2022-11-23T05:30:06.747Z,1003.25
2022-11-23T05:31:06.691Z,1003.30
2022-11-23T05:32:06.677Z,1003.24
2022-11-23T05:33:06.687Z,1003.27
2022-11-23T05:34:06.631Z,1003.22
2022-11-23T05:35:06.638Z,1003.25
2022-11-23T05:36:06.615Z,1003.26
2022-11-23T05:37:06.661Z,1003.28
2022-11-23T05:38:06.583Z,1003.17
2022-11-23T05:39:06.586Z,1003.26
2022-11-23T05:40:06.572Z,1003.17
2022-11-23T05:41:06.597Z,1003.17
2022-11-23T05:42:06.561Z,1003.20
2022-11-23T05:43:06.565Z,1003.14
2022-11-23T05:44:06.513Z,1003.18
2022-11-23T05:45:11.341Z,1003.16
2022-11-23T05:46:06.476Z,1003.13
2022-11-23T05:47:06.503Z,1003.15
2022-11-23T05:48:06.494Z,1003.23
2022-11-23T05:49:06.459Z,1003.22
2022-11-23T05:50:06.429Z,1003.23
2022-11-23T05:51:06.429Z,1003.21
2022-11-23T05:52:06.405Z,1003.24
2022-11-23T05:53:06.440Z,1003.24
2022-11-23T05:54:06.402Z,1003.18
2022-11-23T05:55:06.394Z,1003.18
2022-11-23T05:56:06.370Z,1003.14
2022-11-23T05:57:06.361Z,1003.13
2022-11-23T05:58:06.320Z,1003.17
2022-11-23T05:59:06.400Z,1003.12
2022-11-23T06:00:06.296Z,1003.14
2022-11-23T06:01:06.329Z,1003.17
2022-11-23T06:02:06.295Z,1003.14
2022-11-23T06:03:06.283Z,1003.17
2022-11-23T06:04:06.281Z,1003.15
2022-11-23T06:05:06.320Z,1003.17
2022-11-23T06:06:06.225Z,1003.17
2022-11-23T06:07:06.298Z,1003.18
2022-11-23T06:08:06.222Z,1003.20
2022-11-23T06:09:06.205Z,1003.19
2022-11-23T06:10:06.207Z,1003.17
2022-11-23T06:11:06.224Z,1003.22
2022-11-23T06:12:06.139Z,1003.19
2022-11-23T06:13:06.154Z,1003.17
2022-11-23T06:14:09.941Z,1003.18
2022-11-23T06:15:06.135Z,1003.19
2022-11-23T06:16:06.121Z,1003.17
2022-11-23T06:17:06.123Z,1003.09
2022-11-23T06:18:06.068Z,1003.16
2022-11-23T06:19:06.083Z,1003.15
2022-11-23T06:20:06.057Z,1003.16
2022-11-23T06:21:06.081Z,1003.13
2022-11-23T06:22:06.007Z,1003.17
2022-11-23T06:23:05.971Z,1003.15
2022-11-23T06:24:05.972Z,1003.11
2022-11-23T06:25:05.947Z,1003.18
2022-11-23T06:26:05.911Z,1003.12
2022-11-23T06:27:05.971Z,1003.15
2022-11-23T06:28:06.054Z,1003.07
2022-11-23T06:29:05.949Z,1003.11
2022-11-23T06:30:05.889Z,1003.07
2022-11-23T06:31:05.875Z,1003.09
2022-11-23T06:32:05.999Z,1003.14
2022-11-23T06:33:05.866Z,1003.05
2022-11-23T06:34:05.806Z,1003.07
2022-11-23T06:35:05.968Z,1003.09
2022-11-23T06:36:05.813Z,1003.07
2022-11-23T06:37:05.796Z,1003.09
2022-11-23T06:38:05.814Z,1003.09
2022-11-23T06:39:05.765Z,1003.13
2022-11-23T06:40:05.894Z,1003.14
2022-11-23T06:41:05.753Z,1003.15
2022-11-23T06:42:31.361Z,1003.10
2022-11-23T06:43:05.752Z,1003.08
2022-11-23T06:44:05.857Z,1003.08
2022-11-23T06:45:05.692Z,1003.11
2022-11-23T06:46:05.655Z,1003.17
2022-11-23T06:47:05.701Z,1003.10
2022-11-23T06:48:05.630Z,1003.12
2022-11-23T06:49:05.667Z,1003.13
2022-11-23T06:50:05.632Z,1003.13
2022-11-23T06:51:05.615Z,1003.14
2022-11-23T06:52:05.574Z,1003.14
2022-11-23T06:53:05.626Z,1003.18
2022-11-23T06:54:05.581Z,1003.20
2022-11-23T06:55:05.559Z,1003.21
2022-11-23T06:56:05.564Z,1003.24
2022-11-23T06:57:05.535Z,1003.26
2022-11-23T06:58:05.497Z,1003.26
2022-11-23T06:59:05.529Z,1003.24
2022-11-23T07:00:05.504Z,1003.29
2022-11-23T07:01:05.507Z,1003.28
2022-11-23T07:02:05.466Z,1003.25
2022-11-23T07:03:05.456Z,1003.24
2022-11-23T07:04:05.430Z,1003.27
2022-11-23T07:05:05.464Z,1003.31
2022-11-23T07:06:05.521Z,1003.23
2022-11-23T07:07:05.459Z,1003.30
2022-11-23T07:08:05.456Z,1003.34
2022-11-23T07:09:05.405Z,1003.31
2022-11-23T07:10:07.302Z,1003.28
2022-11-23T07:11:05.392Z,1003.40
2022-11-23T07:12:05.450Z,1003.33
2022-11-23T07:13:05.343Z,1003.33
2022-11-23T07:14:05.339Z,1003.42
2022-11-23T07:15:05.319Z,1003.42
2022-11-23T07:16:05.300Z,1003.37
2022-11-23T07:17:05.331Z,1003.40
2022-11-23T07:18:05.241Z,1003.43
2022-11-23T07:19:05.260Z,1003.35
2022-11-23T07:20:05.320Z,1003.42
2022-11-23T07:21:05.242Z,1003.41
2022-11-23T07:22:05.249Z,1003.40
2022-11-23T07:23:05.212Z,1003.41
2022-11-23T07:24:05.203Z,1003.42
2022-11-23T07:25:05.181Z,1003.44
2022-11-23T07:26:05.164Z,1003.42
2022-11-23T07:27:05.191Z,1003.46
2022-11-23T07:28:05.111Z,1003.39
2022-11-23T07:29:05.169Z,1003.41
2022-11-23T07:30:05.143Z,1003.36
2022-11-23T07:31:05.109Z,1003.41
2022-11-23T07:32:05.062Z,1003.40
2022-11-23T07:33:05.136Z,1003.41
2022-11-23T07:34:05.034Z,1003.42
2022-11-23T07:35:05.054Z,1003.42
2022-11-23T07:36:05.154Z,1003.51
2022-11-23T07:37:05.041Z,1003.44
2022-11-23T07:38:05.040Z,1003.45
2022-11-23T07:39:04.997Z,1003.46
2022-11-23T07:40:05.368Z,1003.47
2022-11-23T07:41:04.972Z,1003.46
2022-11-23T07:42:31.089Z,1003.47
2022-11-23T07:43:04.952Z,1003.45
2022-11-23T07:44:04.945Z,1003.42
2022-11-23T07:45:04.941Z,1003.38
2022-11-23T07:46:04.932Z,1003.37
2022-11-23T07:47:04.894Z,1003.42
2022-11-23T07:48:04.860Z,1003.37
2022-11-23T07:49:04.928Z,1003.31
2022-11-23T07:50:04.835Z,1003.33
2022-11-23T07:51:04.848Z,1003.36
2022-11-23T07:52:04.844Z,1003.36
2022-11-23T07:53:04.831Z,1003.38
2022-11-23T07:54:04.781Z,1003.34
2022-11-23T07:55:04.836Z,1003.39
2022-11-23T07:56:04.782Z,1003.41
2022-11-23T07:57:04.765Z,1003.37
2022-11-23T07:58:04.743Z,1003.43
2022-11-23T07:59:04.741Z,1003.42
2022-11-23T08:00:04.742Z,1003.45
2022-11-23T08:01:04.734Z,1003.49
2022-11-23T08:02:04.701Z,1003.57
2022-11-23T08:03:26.543Z,1003.52
2022-11-23T08:04:04.871Z,1003.54
2022-11-23T08:05:05.043Z,1003.61
2022-11-23T08:06:04.669Z,1003.61
2022-11-23T08:07:04.694Z,1003.57
2022-11-23T08:08:04.659Z,1003.62
2022-11-23T08:09:04.623Z,1003.60
2022-11-23T08:10:04.778Z,1003.59
2022-11-23T08:11:04.642Z,1003.56
2022-11-23T08:12:04.551Z,1003.59
2022-11-23T08:13:04.561Z,1003.56
2022-11-23T08:14:04.528Z,1003.61
2022-11-23T08:15:04.537Z,1003.62
2022-11-23T08:16:04.505Z,1003.63
2022-11-23T08:17:04.548Z,1003.65
2022-11-23T08:18:04.518Z,1003.63
2022-11-23T08:19:04.503Z,1003.63
2022-11-23T08:20:04.654Z,1003.58
2022-11-23T08:21:04.460Z,1003.55
2022-11-23T08:22:04.709Z,1003.61
2022-11-23T08:23:04.442Z,1003.65
2022-11-23T08:24:04.399Z,1003.56
2022-11-23T08:25:04.431Z,1003.57
2022-11-23T08:26:09.010Z,1003.54
2022-11-23T08:27:04.400Z,1003.52
2022-11-23T08:28:04.391Z,1003.53
2022-11-23T08:29:04.368Z,1003.50
2022-11-23T08:30:04.328Z,1003.49
2022-11-23T08:31:04.341Z,1003.49
2022-11-23T08:32:04.330Z,1003.52
2022-11-23T08:33:04.378Z,1003.50
2022-11-23T08:34:04.274Z,1003.58
2022-11-23T08:35:04.303Z,1003.53
2022-11-23T08:36:04.259Z,1003.55
2022-11-23T08:37:04.260Z,1003.52
2022-11-23T08:38:04.275Z,1003.55
2022-11-23T08:39:04.261Z,1003.54
2022-11-23T08:40:04.209Z,1003.53
2022-11-23T08:41:04.252Z,1003.51
2022-11-23T08:42:04.184Z,1003.51
2022-11-23T08:43:04.187Z,1003.55
2022-11-23T08:44:04.224Z,1003.58
2022-11-23T08:45:04.173Z,1003.53
2022-11-23T08:46:09.330Z,1003.55
2022-11-23T08:47:04.158Z,1003.54
2022-11-23T08:48:04.110Z,1003.59
2022-11-23T08:49:04.107Z,1003.55
2022-11-23T08:50:04.136Z,1003.55
2022-11-23T08:51:04.087Z,1003.56
2022-11-23T08:52:04.044Z,1003.58
2022-11-23T08:53:04.089Z,1003.58
2022-11-23T08:54:04.044Z,1003.61
2022-11-23T08:55:04.048Z,1003.58
2022-11-23T08:56:04.071Z,1003.52
2022-11-23T08:57:03.984Z,1003.55
2022-11-23T08:58:06.811Z,1003.52
2022-11-23T08:59:03.990Z,1003.55
2022-11-23T09:00:03.975Z,1003.56
2022-11-23T09:01:04.004Z,1003.57
2022-11-23T09:02:03.997Z,1003.54
2022-11-23T09:03:03.913Z,1003.58
2022-11-23T09:04:03.928Z,1003.58
2022-11-23T09:05:03.895Z,1003.56
2022-11-23T09:06:03.916Z,1003.57
2022-11-23T09:07:03.853Z,1003.62
2022-11-23T09:08:03.905Z,1003.60
2022-11-23T09:09:03.825Z,1003.61
2022-11-23T09:10:03.839Z,1003.59
2022-11-23T09:11:03.817Z,1003.59
2022-11-23T09:12:03.883Z,1003.61
2022-11-23T09:13:03.792Z,1003.61
2022-11-23T09:14:03.784Z,1003.61
2022-11-23T09:15:03.757Z,1003.52
2022-11-23T09:16:03.858Z,1003.53
2022-11-23T09:17:03.782Z,1003.56
2022-11-23T09:18:03.744Z,1003.55
2022-11-23T09:19:03.709Z,1003.57
2022-11-23T09:20:03.790Z,1003.55
2022-11-23T09:21:03.679Z,1003.49
2022-11-23T09:22:03.687Z,1003.53
2022-11-23T09:23:03.670Z,1003.55
2022-11-23T09:24:03.725Z,1003.55
2022-11-23T09:25:03.668Z,1003.60
2022-11-23T09:26:03.633Z,1003.55
2022-11-23T09:27:03.599Z,1003.50
2022-11-23T09:28:03.713Z,1003.53
2022-11-23T09:29:03.592Z,1003.50
2022-11-23T09:30:03.610Z,1003.51
2022-11-23T09:31:03.560Z,1003.51
2022-11-23T09:32:03.628Z,1003.46
2022-11-23T09:33:03.536Z,1003.45
2022-11-23T09:34:03.558Z,1003.43
2022-11-23T09:35:03.500Z,1003.47
2022-11-23T09:36:03.557Z,1003.39
2022-11-23T09:37:03.481Z,1003.48
2022-11-23T09:38:03.486Z,1003.46
2022-11-23T09:39:03.491Z,1003.40
2022-11-23T09:40:03.461Z,1003.42
2022-11-23T09:41:03.431Z,1003.44
2022-11-23T09:42:03.425Z,1003.43
2022-11-23T09:43:03.404Z,1003.41
2022-11-23T09:44:03.414Z,1003.42
2022-11-23T09:45:03.492Z,1003.46
2022-11-23T09:46:03.390Z,1003.43
2022-11-23T09:47:03.361Z,1003.41
2022-11-23T09:48:03.414Z,1003.41
2022-11-23T09:49:03.336Z,1003.48
2022-11-23T09:50:03.369Z,1003.47
2022-11-23T09:51:03.298Z,1003.46
2022-11-23T09:52:03.313Z,1003.45
2022-11-23T09:53:03.269Z,1003.35
2022-11-23T09:54:03.280Z,1003.34
2022-11-23T09:55:03.262Z,1003.36
2022-11-23T09:56:03.287Z,1003.37
2022-11-23T09:57:03.313Z,1003.34
2022-11-23T09:58:03.222Z,1003.32
2022-11-23T09:59:03.196Z,1003.30
2022-11-23T10:00:03.212Z,1003.27
2022-11-23T10:01:03.218Z,1003.28
2022-11-23T10:02:03.226Z,1003.28
2022-11-23T10:03:03.139Z,1003.26
2022-11-23T10:04:03.171Z,1003.25
2022-11-23T10:05:03.125Z,1003.21
2022-11-23T10:06:03.136Z,1003.25
2022-11-23T10:07:03.124Z,1003.20
2022-11-23T10:08:03.104Z,1003.14
2022-11-23T10:09:03.064Z,1003.18
2022-11-23T10:10:03.071Z,1003.13
2022-11-23T10:11:03.041Z,1003.10
2022-11-23T10:12:03.100Z,1003.00
2022-11-23T10:13:03.015Z,1003.04
2022-11-23T10:14:03.020Z,1003.06
2022-11-23T10:15:03.054Z,1003.03
2022-11-23T10:16:02.996Z,1003.04
2022-11-23T10:17:02.980Z,1003.02
2022-11-23T10:18:03.037Z,1002.95
2022-11-23T10:19:02.943Z,1002.93
2022-11-23T10:20:02.970Z,1002.94
2022-11-23T10:21:02.908Z,1002.90
2022-11-23T10:22:02.918Z,1002.89
2022-11-23T10:23:03.006Z,1002.91
2022-11-23T10:24:02.900Z,1002.90
2022-11-23T10:25:02.870Z,1002.86
2022-11-23T10:26:02.878Z,1002.85
2022-11-23T10:27:02.857Z,1002.88
2022-11-23T10:28:02.842Z,1002.92
2022-11-23T10:29:02.832Z,1002.91
2022-11-23T10:30:02.827Z,1002.91
2022-11-23T10:31:02.856Z,1002.91
2022-11-23T10:32:02.798Z,1002.86
2022-11-23T10:33:02.757Z,1002.87
2022-11-23T10:34:02.869Z,1002.85
2022-11-23T10:35:02.733Z,1002.81
2022-11-23T10:36:02.738Z,1002.81
2022-11-23T10:37:02.789Z,1002.82
2022-11-23T10:38:02.718Z,1002.83
2022-11-23T10:39:02.681Z,1002.79
2022-11-23T10:40:02.718Z,1002.79
2022-11-23T10:41:02.649Z,1002.81
2022-11-23T10:42:02.666Z,1002.79
2022-11-23T10:43:02.623Z,1002.78
2022-11-23T10:44:02.631Z,1002.76
2022-11-23T10:45:02.654Z,1002.81
2022-11-23T10:46:02.609Z,1002.74
2022-11-23T10:47:02.575Z,1002.77
2022-11-23T10:48:02.582Z,1002.73
2022-11-23T10:49:02.637Z,1002.73
2022-11-23T10:50:02.560Z,1002.68
2022-11-23T10:51:02.550Z,1002.71
2022-11-23T10:52:02.539Z,1002.71
2022-11-23T10:53:02.518Z,1002.70
2022-11-23T10:54:05.520Z,1002.63
2022-11-23T10:55:02.484Z,1002.62
2022-11-23T10:56:02.535Z,1002.64
2022-11-23T10:57:02.446Z,1002.66
2022-11-23T10:58:02.476Z,1002.70
2022-11-23T10:59:02.421Z,1002.66
2022-11-23T11:00:02.443Z,1002.73
2022-11-23T11:01:02.415Z,1002.68
2022-11-23T11:02:02.491Z,1002.68
2022-11-23T11:03:02.388Z,1002.63
2022-11-23T11:04:02.387Z,1002.65
2022-11-23T11:05:02.352Z,1002.64
2022-11-23T11:06:10.803Z,1002.66
2022-11-23T11:07:02.356Z,1002.55
2022-11-23T11:08:02.335Z,1002.60
2022-11-23T11:09:03.669Z,1002.59
2022-11-23T11:10:02.301Z,1002.55
2022-11-23T11:11:02.282Z,1002.58
2022-11-23T11:12:02.270Z,1002.49
2022-11-23T11:13:02.262Z,1002.48
2022-11-23T11:14:02.262Z,1002.51
2022-11-23T11:15:10.871Z,1002.53
2022-11-23T11:16:02.235Z,1002.54
2022-11-23T11:17:02.196Z,1002.51
2022-11-23T11:18:02.229Z,1002.49
2022-11-23T11:19:02.164Z,1002.52
2022-11-23T11:20:02.210Z,1002.46
2022-11-23T11:21:02.138Z,1002.49
2022-11-23T11:22:02.148Z,1002.49
2022-11-23T11:23:02.123Z,1002.48
2022-11-23T11:24:02.144Z,1002.50
2022-11-23T11:25:02.077Z,1002.46
2022-11-23T11:26:02.133Z,1002.48
2022-11-23T11:27:02.055Z,1002.45
2022-11-23T11:28:02.066Z,1002.50
2022-11-23T11:29:02.069Z,1002.49
2022-11-23T11:30:02.056Z,1002.47
2022-11-23T11:31:02.012Z,1002.42
2022-11-23T11:32:02.019Z,1002.42
2022-11-23T11:33:01.996Z,1002.40
2022-11-23T11:34:01.993Z,1002.38
2022-11-23T11:35:02.004Z,1002.37
2022-11-23T11:36:01.987Z,1002.43
2022-11-23T11:37:01.945Z,1002.44
2022-11-23T11:38:02.029Z,1002.36
2022-11-23T11:39:17.903Z,1002.39
2022-11-23T11:40:01.991Z,1002.37
2022-11-23T11:41:01.871Z,1002.36
2022-11-23T11:42:01.973Z,1002.34
2022-11-23T11:43:01.857Z,1002.24
2022-11-23T11:44:01.874Z,1002.26
2022-11-23T11:45:01.893Z,1002.26
2022-11-23T11:47:01.893Z,1002.29
2022-11-23T11:48:01.807Z,1002.24
2022-11-23T11:49:01.787Z,1002.27
2022-11-23T11:50:01.810Z,1002.28
2022-11-23T11:51:01.786Z,1002.29
2022-11-23T11:52:01.982Z,1002.24
2022-11-23T11:53:01.732Z,1002.25
2022-11-23T11:54:01.743Z,1002.16
2022-11-23T11:55:01.754Z,1002.18
2022-11-23T11:56:01.712Z,1002.19
2022-11-23T11:57:01.761Z,1002.10
2022-11-23T11:58:01.674Z,1002.19
2022-11-23T11:59:01.729Z,1002.13
2022-11-23T12:00:01.673Z,1002.08
2022-11-23T12:01:01.621Z,1002.13
2022-11-23T12:02:01.697Z,1002.08
2022-11-23T12:03:01.657Z,1002.08
2022-11-23T12:04:01.610Z,1002.03
2022-11-23T12:05:01.564Z,1002.00
2022-11-23T12:06:01.613Z,1001.96